createdAt,value
2018-05-10T00:01:07.471Z,82.20
2018-05-10T00:03:36.495Z,82.50
2018-05-10T00:06:05.383Z,82.80
2018-05-10T00:08:35.763Z,83.40
2018-05-10T00:11:04.622Z,83.40
2018-05-10T00:13:33.506Z,83.10
2018-05-10T00:16:02.447Z,82.40
2018-05-10T00:18:31.311Z,81.70
2018-05-10T00:21:00.978Z,81.50
2018-05-10T00:23:30.039Z,81.50
2018-05-10T00:25:58.997Z,82.00
2018-05-10T00:28:28.708Z,83.00
2018-05-10T00:30:58.353Z,82.60
2018-05-10T00:33:27.244Z,82.50
2018-05-10T00:35:56.136Z,82.90
2018-05-10T00:38:24.985Z,82.40
2018-05-10T00:40:53.953Z,82.70
2018-05-10T00:43:22.984Z,84.10
2018-05-10T00:45:52.641Z,84.00
2018-05-10T00:48:21.694Z,83.30
2018-05-10T00:50:50.594Z,83.60
2018-05-10T00:53:20.330Z,83.10
2018-05-10T00:55:49.297Z,83.80
2018-05-10T00:58:18.271Z,84.40
2018-05-10T01:00:47.240Z,84.10
2018-05-10T01:03:16.122Z,84.10
2018-05-10T01:05:45.004Z,83.10
2018-05-10T01:08:13.923Z,82.80
2018-05-10T01:10:42.962Z,82.30
2018-05-10T01:13:11.920Z,82.30
2018-05-10T01:15:41.428Z,81.80
2018-05-10T01:18:11.105Z,81.70
2018-05-10T01:20:40.267Z,81.60
2018-05-10T01:23:09.144Z,81.60
2018-05-10T01:25:38.171Z,81.80
2018-05-10T01:28:07.100Z,81.80
2018-05-10T01:30:36.723Z,82.30
2018-05-10T01:33:05.643Z,82.00
2018-05-10T01:35:52.394Z,82.00
2018-05-10T01:38:22.770Z,82.20
2018-05-10T01:40:51.675Z,82.10
2018-05-10T01:43:20.530Z,82.20
2018-05-10T01:45:49.494Z,82.30
2018-05-10T01:48:18.367Z,82.60
2018-05-10T01:50:47.542Z,82.80
2018-05-10T01:53:16.438Z,82.60
2018-05-10T01:55:45.994Z,82.70
2018-05-10T01:58:14.846Z,83.00
2018-05-10T02:00:44.045Z,82.60
2018-05-10T02:03:13.104Z,83.10
2018-05-10T02:05:42.026Z,83.00
2018-05-10T02:08:10.923Z,83.10
2018-05-10T02:10:39.878Z,83.40
2018-05-10T02:13:08.904Z,83.40
2018-05-10T02:15:37.820Z,83.60
2018-05-10T02:18:06.891Z,83.10
2018-05-10T02:20:35.791Z,83.40
2018-05-10T02:23:05.068Z,83.60
2018-05-10T02:25:34.156Z,83.50
2018-05-10T02:28:03.028Z,83.30
2018-05-10T02:30:31.916Z,83.70
2018-05-10T02:33:00.820Z,83.60
2018-05-10T02:35:29.739Z,84.00
2018-05-10T02:37:58.634Z,84.30
2018-05-10T02:40:27.534Z,84.50
2018-05-10T02:42:56.443Z,84.00
2018-05-10T02:45:26.123Z,83.80
2018-05-10T02:47:55.043Z,83.70
2018-05-10T02:50:24.687Z,83.50
2018-05-10T02:52:53.599Z,83.40
2018-05-10T02:55:22.500Z,83.40
2018-05-10T02:57:51.386Z,83.30
2018-05-10T03:00:20.295Z,83.50
2018-05-10T03:02:49.703Z,83.30
2018-05-10T03:05:18.587Z,83.60
2018-05-10T03:07:47.531Z,83.50
2018-05-10T03:10:16.535Z,83.10
2018-05-10T03:12:45.429Z,82.90
2018-05-10T03:15:14.335Z,83.00
2018-05-10T03:17:43.319Z,83.00
2018-05-10T03:20:12.279Z,82.90
2018-05-10T03:22:41.195Z,83.00
2018-05-10T03:25:10.099Z,83.20
2018-05-10T03:27:38.987Z,84.00
2018-05-10T03:30:07.884Z,84.30
2018-05-10T03:32:36.955Z,83.70
2018-05-10T03:35:06.062Z,83.60
2018-05-10T03:37:35.031Z,83.50
2018-05-10T03:40:03.986Z,84.00
2018-05-10T03:42:33.010Z,83.20
2018-05-10T03:45:01.965Z,83.80
2018-05-10T03:47:31.115Z,83.10
2018-05-10T03:49:59.978Z,83.70
2018-05-10T03:52:28.876Z,83.60
2018-05-10T03:54:57.759Z,83.10
2018-05-10T03:57:26.779Z,82.00
2018-05-10T03:59:55.653Z,83.40
2018-05-10T04:02:42.291Z,82.90
2018-05-10T04:05:28.935Z,82.30
2018-05-10T04:08:15.923Z,81.90
2018-05-10T04:11:02.684Z,82.20
2018-05-10T04:13:31.542Z,81.80
2018-05-10T04:16:00.440Z,82.60
2018-05-10T04:18:30.088Z,82.70
2018-05-10T04:20:59.046Z,82.70
2018-05-10T04:23:28.690Z,82.40
2018-05-10T04:25:57.617Z,82.40
2018-05-10T04:28:26.516Z,82.50
2018-05-10T04:30:55.452Z,82.00
2018-05-10T04:33:24.345Z,81.60
2018-05-10T04:35:53.230Z,81.30
2018-05-10T04:38:22.887Z,81.80
2018-05-10T04:40:51.951Z,81.80
2018-05-10T04:43:20.834Z,81.80
2018-05-10T04:45:49.720Z,82.00
2018-05-10T04:48:18.612Z,81.90
2018-05-10T04:50:48.294Z,82.10
2018-05-10T04:53:17.974Z,82.00
2018-05-10T04:55:46.958Z,81.90
2018-05-10T04:58:15.951Z,81.70
2018-05-10T05:00:44.978Z,81.50
2018-05-10T05:03:13.840Z,81.90
2018-05-10T05:05:42.831Z,81.80
2018-05-10T05:08:11.750Z,81.30
2018-05-10T05:10:40.611Z,80.70
2018-05-10T05:13:09.473Z,81.00
2018-05-10T05:15:38.388Z,79.90
2018-05-10T05:18:07.258Z,78.50
2018-05-10T05:20:36.253Z,77.40
2018-05-10T05:23:05.306Z,75.00
2018-05-10T05:25:34.951Z,74.30
2018-05-10T05:28:03.902Z,74.30
2018-05-10T05:30:33.554Z,71.20
2018-05-10T05:33:02.601Z,71.10
2018-05-10T05:35:31.565Z,71.40
2018-05-10T05:38:00.364Z,73.50
2018-05-10T05:40:29.411Z,71.30
2018-05-10T05:42:58.298Z,69.80
2018-05-10T05:45:27.196Z,70.50
2018-05-10T05:47:56.155Z,70.70
2018-05-10T05:50:25.803Z,72.20
2018-05-10T05:52:54.897Z,72.20
2018-05-10T05:55:23.784Z,71.70
2018-05-10T05:57:52.804Z,72.60
2018-05-10T06:00:21.694Z,73.40
2018-05-10T06:02:50.560Z,73.80
2018-05-10T06:05:19.464Z,73.10
2018-05-10T06:07:48.340Z,73.30
2018-05-10T06:10:17.610Z,72.10
2018-05-10T06:12:46.454Z,72.80
2018-05-10T06:15:16.136Z,72.40
2018-05-10T06:17:45.023Z,71.40
2018-05-10T06:20:13.945Z,71.40
2018-05-10T06:22:42.930Z,70.10
2018-05-10T06:25:11.946Z,70.90
2018-05-10T06:27:41.499Z,69.80
2018-05-10T06:30:10.720Z,69.80
2018-05-10T06:32:39.581Z,71.60
2018-05-10T06:35:08.648Z,71.80
2018-05-10T06:37:37.627Z,69.50
2018-05-10T06:40:06.487Z,68.80
2018-05-10T06:42:35.535Z,69.70
2018-05-10T06:45:04.513Z,71.20
2018-05-10T06:47:33.583Z,69.30
2018-05-10T06:50:02.439Z,69.40
2018-05-10T06:52:31.335Z,67.70
2018-05-10T06:55:00.250Z,66.10
2018-05-10T06:57:29.210Z,64.80
2018-05-10T06:59:58.110Z,64.80
2018-05-10T07:02:27.112Z,65.80
2018-05-10T07:04:55.991Z,67.00
2018-05-10T07:07:25.036Z,68.70
2018-05-10T07:09:54.064Z,69.90
2018-05-10T07:12:23.594Z,72.20
2018-05-10T07:14:52.680Z,72.20
2018-05-10T07:17:21.567Z,72.20
2018-05-10T07:19:50.455Z,73.70
2018-05-10T07:22:19.707Z,72.70
2018-05-10T07:24:48.590Z,71.80
2018-05-10T07:27:17.527Z,68.20
2018-05-10T07:29:46.491Z,66.60
2018-05-10T07:32:15.423Z,67.30
2018-05-10T07:34:44.310Z,68.30
2018-05-10T07:37:13.363Z,68.70
2018-05-10T07:39:42.530Z,70.10
2018-05-10T07:42:11.487Z,70.20
2018-05-10T07:44:40.334Z,70.60
2018-05-10T07:47:09.254Z,70.90
2018-05-10T07:49:38.266Z,72.00
2018-05-10T07:52:07.155Z,71.70
2018-05-10T07:54:36.042Z,71.30
2018-05-10T07:57:04.936Z,70.90
2018-05-10T07:59:33.825Z,70.40
2018-05-10T08:02:02.694Z,69.60
2018-05-10T08:04:32.338Z,69.60
2018-05-10T08:07:01.327Z,69.50
2018-05-10T08:09:30.234Z,68.30
2018-05-10T08:11:59.110Z,67.80
2018-05-10T08:14:28.020Z,66.00
2018-05-10T08:16:56.909Z,64.50
2018-05-10T08:19:25.971Z,63.10
2018-05-10T08:21:54.880Z,64.20
2018-05-10T08:24:23.903Z,64.30
2018-05-10T08:26:52.809Z,67.70
2018-05-10T08:29:21.711Z,70.00
2018-05-10T08:31:51.358Z,66.80
2018-05-10T08:34:20.390Z,66.80
2018-05-10T08:36:49.732Z,66.70
2018-05-10T08:39:18.730Z,65.20
2018-05-10T08:41:47.603Z,64.40
2018-05-10T08:44:16.666Z,64.40
2018-05-10T08:46:45.788Z,63.20
2018-05-10T08:49:14.732Z,62.50
2018-05-10T08:51:43.636Z,61.10
2018-05-10T08:54:12.533Z,59.00
2018-05-10T08:56:41.420Z,59.50
2018-05-10T08:59:10.319Z,58.80
2018-05-10T09:01:39.203Z,59.20
2018-05-10T09:04:08.116Z,60.40
2018-05-10T09:06:37.766Z,59.90
2018-05-10T09:09:06.693Z,59.80
2018-05-10T09:11:35.648Z,59.10
2018-05-10T09:14:04.528Z,60.00
2018-05-10T09:16:33.446Z,59.60
2018-05-10T09:19:02.318Z,59.50
2018-05-10T09:21:31.207Z,59.10
2018-05-10T09:24:00.233Z,60.80
2018-05-10T09:26:29.115Z,59.20
2018-05-10T09:28:57.983Z,59.50
2018-05-10T09:31:26.941Z,59.50
2018-05-10T09:33:55.810Z,60.30
2018-05-10T09:36:24.763Z,59.60
2018-05-10T09:38:53.624Z,59.00
2018-05-10T09:41:22.735Z,61.40
2018-05-10T09:43:51.636Z,61.00
2018-05-10T09:46:20.523Z,61.00
2018-05-10T09:48:49.407Z,60.90
2018-05-10T09:51:18.360Z,63.00
2018-05-10T09:53:47.227Z,64.00
2018-05-10T09:56:16.271Z,62.90
2018-05-10T09:58:45.159Z,63.10
2018-05-10T10:01:14.163Z,63.00
2018-05-10T10:03:43.049Z,62.20
2018-05-10T10:06:12.059Z,63.40
2018-05-10T10:08:40.919Z,64.00
2018-05-10T10:11:10.575Z,62.60
2018-05-10T10:13:39.552Z,62.60
2018-05-10T10:16:08.419Z,64.30
2018-05-10T10:18:38.453Z,65.10
2018-05-10T10:21:08.547Z,65.90
2018-05-10T10:23:37.411Z,65.80
2018-05-10T10:26:07.000Z,65.80
2018-05-10T10:28:36.027Z,63.50
2018-05-10T10:31:04.918Z,63.60
2018-05-10T10:33:34.630Z,62.30
2018-05-10T10:36:03.520Z,62.20
2018-05-10T10:38:33.215Z,60.70
2018-05-10T10:41:02.861Z,61.30
2018-05-10T10:43:31.744Z,61.30
2018-05-10T10:46:00.656Z,60.30
2018-05-10T10:48:29.552Z,60.00
2018-05-10T10:50:58.479Z,60.70
2018-05-10T10:53:27.374Z,61.30
2018-05-10T10:55:56.298Z,62.10
2018-05-10T10:58:25.226Z,63.10
2018-05-10T11:00:54.123Z,61.30
2018-05-10T11:03:23.359Z,61.30
2018-05-10T11:05:53.105Z,59.50
2018-05-10T11:08:22.004Z,59.50
2018-05-10T11:10:51.095Z,59.90
2018-05-10T11:13:20.030Z,59.30
2018-05-10T11:15:48.944Z,60.40
2018-05-10T11:18:17.831Z,60.40
2018-05-10T11:20:46.781Z,59.70
2018-05-10T11:23:15.655Z,59.30
2018-05-10T11:25:44.511Z,59.10
2018-05-10T11:28:13.427Z,58.50
2018-05-10T11:30:42.348Z,58.60
2018-05-10T11:33:11.307Z,58.90
2018-05-10T11:35:40.951Z,59.60
2018-05-10T11:38:09.857Z,59.50
2018-05-10T11:40:38.761Z,60.40
2018-05-10T11:43:08.678Z,61.90
2018-05-10T11:45:37.642Z,61.90
2018-05-10T11:48:06.527Z,61.10
2018-05-10T11:50:35.471Z,60.10
2018-05-10T11:53:05.166Z,63.00
2018-05-10T11:55:34.842Z,62.00
2018-05-10T11:58:03.799Z,62.00
2018-05-10T12:00:33.090Z,62.00
2018-05-10T12:03:01.960Z,61.90
2018-05-10T12:05:31.818Z,59.40
2018-05-10T12:08:00.723Z,59.30
2018-05-10T12:10:29.613Z,60.30
2018-05-10T12:12:58.579Z,60.20
2018-05-10T12:15:27.539Z,61.00
2018-05-10T12:17:57.192Z,61.20
2018-05-10T12:20:26.152Z,61.20
2018-05-10T12:22:55.038Z,61.20
2018-05-10T12:25:24.830Z,60.50
2018-05-10T12:27:53.724Z,60.40
2018-05-10T12:30:23.438Z,60.80
2018-05-10T12:32:52.352Z,60.80
2018-05-10T12:35:21.356Z,60.80
2018-05-10T12:37:50.218Z,61.60
2018-05-10T12:40:20.011Z,61.50
2018-05-10T12:42:48.895Z,61.50
2018-05-10T12:45:17.791Z,60.60
2018-05-10T12:47:46.675Z,60.80
2018-05-10T12:50:15.581Z,59.90
2018-05-10T12:52:45.258Z,61.20
2018-05-10T12:55:14.420Z,60.80
2018-05-10T12:57:43.303Z,59.90
2018-05-10T13:00:12.174Z,59.80
2018-05-10T13:02:41.909Z,59.00
2018-05-10T13:05:10.940Z,59.00
2018-05-10T13:07:39.819Z,58.80
2018-05-10T13:10:08.924Z,59.30
2018-05-10T13:12:37.866Z,58.30
2018-05-10T13:15:06.738Z,57.80
2018-05-10T13:17:36.520Z,57.90
2018-05-10T13:20:05.475Z,57.90
2018-05-10T13:22:34.361Z,56.80
2018-05-10T13:25:03.333Z,56.50
2018-05-10T13:27:32.468Z,56.00
2018-05-10T13:30:01.422Z,56.70
2018-05-10T13:32:31.072Z,57.00
2018-05-10T13:35:00.036Z,57.00
2018-05-10T13:37:28.906Z,56.80
2018-05-10T13:39:58.575Z,57.80
2018-05-10T13:42:27.530Z,57.70
2018-05-10T13:44:56.403Z,58.20
2018-05-10T13:47:26.299Z,57.70
2018-05-10T13:49:55.160Z,57.70
2018-05-10T13:52:24.208Z,57.50
2018-05-10T13:54:53.095Z,57.90
2018-05-10T13:57:22.054Z,58.70
2018-05-10T13:59:50.930Z,58.60
2018-05-10T14:02:19.809Z,57.20
2018-05-10T14:04:48.716Z,57.50
2018-05-10T14:07:17.609Z,58.10
2018-05-10T14:09:46.511Z,58.00
2018-05-10T14:12:16.222Z,57.40
2018-05-10T14:14:45.416Z,57.40
2018-05-10T14:17:15.069Z,58.30
2018-05-10T14:19:44.079Z,58.30
2018-05-10T14:22:12.968Z,58.60
2018-05-10T14:24:41.864Z,58.70
2018-05-10T14:27:10.982Z,58.40
2018-05-10T14:29:39.886Z,58.90
2018-05-10T14:32:08.884Z,59.10
2018-05-10T14:34:37.797Z,59.40
2018-05-10T14:37:07.533Z,59.50
2018-05-10T14:39:36.568Z,59.40
2018-05-10T14:42:06.212Z,59.40
2018-05-10T14:44:35.110Z,59.30
2018-05-10T14:47:03.986Z,58.00
2018-05-10T14:49:33.650Z,57.90
2018-05-10T14:52:02.564Z,57.90
2018-05-10T14:54:31.433Z,57.40
2018-05-10T14:57:00.351Z,57.10
2018-05-10T14:59:29.228Z,57.70
2018-05-10T15:01:58.134Z,57.30
2018-05-10T15:04:27.004Z,56.60
2018-05-10T15:06:55.971Z,57.50
2018-05-10T15:09:24.860Z,57.60
2018-05-10T15:11:53.771Z,56.70
2018-05-10T15:14:22.655Z,56.90
2018-05-10T15:16:51.551Z,56.50
2018-05-10T15:19:20.574Z,58.40
2018-05-10T15:21:50.240Z,61.70
2018-05-10T15:24:20.055Z,61.70
2018-05-10T15:26:49.018Z,63.60
2018-05-10T15:29:17.881Z,64.30
2018-05-10T15:31:47.631Z,65.70
2018-05-10T15:34:16.927Z,65.70
2018-05-10T15:36:45.827Z,66.80
2018-05-10T15:39:14.970Z,66.90
2018-05-10T15:41:43.803Z,66.60
2018-05-10T15:44:12.714Z,66.50
2018-05-10T15:46:41.779Z,66.20
2018-05-10T15:49:10.875Z,66.30
2018-05-10T15:51:39.768Z,66.00
2018-05-10T15:54:08.829Z,66.80
2018-05-10T15:56:37.691Z,68.10
2018-05-10T15:59:06.620Z,68.00
2018-05-10T16:01:36.325Z,68.40
2018-05-10T16:04:06.011Z,69.80
2018-05-10T16:06:35.158Z,69.80
2018-05-10T16:09:04.175Z,71.00
2018-05-10T16:11:33.253Z,73.10
2018-05-10T16:14:02.330Z,73.00
2018-05-10T16:16:31.384Z,74.20
2018-05-10T16:19:00.292Z,74.00
2018-05-10T16:21:29.598Z,74.90
2018-05-10T16:23:58.739Z,74.40
2018-05-10T16:26:27.643Z,74.90
2018-05-10T16:28:56.514Z,75.00
2018-05-10T16:31:25.459Z,75.70
2018-05-10T16:33:54.323Z,74.70
2018-05-10T16:36:23.390Z,75.00
2018-05-10T16:38:52.287Z,75.00
2018-05-10T16:41:21.204Z,75.00
2018-05-10T16:43:50.412Z,75.30
2018-05-10T16:46:19.357Z,74.60
2018-05-10T16:48:48.246Z,73.60
2018-05-10T16:51:17.291Z,72.60
2018-05-10T16:53:46.211Z,73.10
2018-05-10T16:56:15.135Z,73.30
2018-05-10T16:58:44.109Z,73.40
2018-05-10T17:01:13.079Z,74.10
2018-05-10T17:03:42.979Z,75.20
2018-05-10T17:06:12.108Z,75.30
2018-05-10T17:08:41.052Z,76.80
2018-05-10T17:11:09.959Z,77.00
2018-05-10T17:13:39.352Z,77.60
2018-05-10T17:16:08.668Z,77.90
2018-05-10T17:18:37.802Z,77.80
2018-05-10T17:21:06.644Z,75.80
2018-05-10T17:23:35.658Z,74.90
2018-05-10T17:26:04.810Z,74.20
2018-05-10T17:28:33.768Z,73.90
2018-05-10T17:31:02.745Z,73.90
2018-05-10T17:33:31.648Z,75.90
2018-05-10T17:36:00.583Z,76.30
2018-05-10T17:38:29.604Z,76.10
2018-05-10T17:40:58.589Z,76.00
2018-05-10T17:43:27.617Z,76.70
2018-05-10T17:45:56.535Z,76.50
2018-05-10T17:48:25.677Z,76.00
2018-05-10T17:50:55.544Z,75.50
2018-05-10T17:53:24.683Z,75.40
2018-05-10T17:55:54.427Z,75.70
2018-05-10T17:58:23.413Z,75.60
2018-05-10T18:00:53.428Z,75.80
2018-05-10T18:03:22.353Z,75.80
2018-05-10T18:05:51.429Z,75.70
2018-05-10T18:08:20.446Z,75.50
2018-05-10T18:10:49.369Z,75.50
2018-05-10T18:13:19.164Z,75.00
2018-05-10T18:15:48.232Z,75.00
2018-05-10T18:18:17.159Z,75.30
2018-05-10T18:20:46.960Z,74.80
2018-05-10T18:23:16.175Z,74.80
2018-05-10T18:25:45.090Z,74.70
2018-05-10T18:28:14.007Z,74.60
2018-05-10T18:30:43.805Z,75.30
2018-05-10T18:33:13.503Z,75.30
2018-05-10T18:35:42.601Z,75.00
2018-05-10T18:38:11.655Z,74.70
2018-05-10T18:40:40.680Z,73.70
2018-05-10T18:43:10.987Z,72.80
2018-05-10T18:45:42.968Z,72.80
2018-05-10T18:48:11.911Z,73.10
2018-05-10T18:50:41.017Z,72.80
2018-05-10T18:53:10.109Z,72.10
2018-05-10T18:55:39.203Z,72.10
2018-05-10T18:58:08.196Z,72.00
2018-05-10T19:00:37.404Z,71.90
2018-05-10T19:03:06.432Z,72.50
2018-05-10T19:05:37.437Z,73.70
2018-05-10T19:08:06.566Z,73.70
2018-05-10T19:10:36.303Z,72.80
2018-05-10T19:13:05.327Z,72.80
2018-05-10T19:15:34.496Z,73.70
2018-05-10T19:18:03.604Z,74.00
2018-05-10T19:20:34.778Z,74.40
2018-05-10T19:23:04.504Z,74.10
2018-05-10T19:25:34.454Z,74.20
2018-05-10T19:28:03.619Z,78.90
2018-05-10T19:30:33.422Z,78.80
2018-05-10T19:33:02.327Z,78.40
2018-05-10T19:35:32.048Z,78.60
2018-05-10T19:38:01.738Z,78.60
2018-05-10T19:40:32.318Z,79.40
2018-05-10T19:43:02.078Z,79.60
2018-05-10T19:45:31.888Z,79.00
2018-05-10T19:48:01.260Z,78.20
2018-05-10T19:50:30.287Z,77.70
2018-05-10T19:52:59.707Z,77.50
2018-05-10T19:55:29.436Z,77.30
2018-05-10T19:57:59.211Z,77.20
2018-05-10T20:00:28.939Z,76.40
2018-05-10T20:02:57.887Z,76.40
2018-05-10T20:05:26.888Z,74.20
2018-05-10T20:07:55.837Z,73.70
2018-05-10T20:10:24.777Z,72.40
2018-05-10T20:12:53.796Z,72.70
2018-05-10T20:15:22.807Z,73.60
2018-05-10T20:17:52.420Z,74.00
2018-05-10T20:20:21.528Z,74.50
2018-05-10T20:22:50.522Z,74.60
2018-05-10T20:25:19.491Z,74.80
2018-05-10T20:27:48.679Z,74.80
2018-05-10T20:30:17.641Z,74.90
2018-05-10T20:32:47.481Z,76.70
2018-05-10T20:35:17.396Z,77.90
2018-05-10T20:37:47.238Z,77.70
2018-05-10T20:40:16.255Z,77.70
2018-05-10T20:42:46.045Z,77.40
2018-05-10T20:45:15.132Z,77.50
2018-05-10T20:47:44.719Z,77.40
2018-05-10T20:50:14.709Z,75.90
2018-05-10T20:52:44.428Z,74.90
2018-05-10T20:55:14.339Z,74.80
2018-05-10T20:57:43.411Z,74.70
2018-05-10T21:00:13.028Z,74.70
2018-05-10T21:02:42.741Z,73.80
2018-05-10T21:05:11.639Z,73.70
2018-05-10T21:07:40.543Z,73.20
2018-05-10T21:10:09.604Z,73.10
2018-05-10T21:12:42.863Z,73.40
2018-05-10T21:15:12.046Z,73.60
2018-05-10T21:17:41.152Z,75.00
2018-05-10T21:20:10.239Z,75.10
2018-05-10T21:22:39.160Z,76.10
2018-05-10T21:25:08.075Z,74.90
2018-05-10T21:27:36.995Z,74.50
2018-05-10T21:30:05.872Z,74.50
2018-05-10T21:32:35.563Z,74.60
2018-05-10T21:35:04.461Z,73.80
2018-05-10T21:37:33.350Z,73.30
2018-05-10T21:40:02.243Z,73.80
2018-05-10T21:42:31.314Z,74.50
2018-05-10T21:45:00.216Z,74.80
2018-05-10T21:47:29.103Z,74.40
2018-05-10T21:50:05.112Z,74.40
2018-05-10T21:52:34.116Z,74.50
2018-05-10T21:55:03.779Z,75.00
2018-05-10T21:57:32.651Z,75.30
2018-05-10T22:00:01.541Z,75.30
2018-05-10T22:02:30.496Z,75.10
2018-05-10T22:04:59.395Z,74.80
2018-05-10T22:07:28.407Z,74.70
2018-05-10T22:09:57.576Z,75.00
2018-05-10T22:12:26.599Z,77.00
2018-05-10T22:14:55.605Z,82.20
2018-05-10T22:17:24.963Z,85.40
2018-05-10T22:19:53.863Z,89.50
2018-05-10T22:22:22.754Z,92.90
2018-05-10T22:24:51.682Z,93.80
2018-05-10T22:27:20.767Z,94.80
2018-05-10T22:29:49.670Z,95.30
2018-05-10T22:32:18.547Z,95.50
2018-05-10T22:34:47.463Z,95.40
2018-05-10T22:37:17.167Z,95.20
2018-05-10T22:39:46.036Z,95.20
2018-05-10T22:42:15.143Z,94.80
2018-05-10T22:44:44.030Z,95.30
2018-05-10T22:47:13.086Z,95.20
2018-05-10T22:49:41.991Z,95.00
2018-05-10T22:52:10.896Z,95.20
2018-05-10T22:54:40.054Z,95.20
2018-05-10T22:57:08.938Z,95.20
2018-05-10T22:59:37.991Z,95.20
2018-05-10T23:02:06.826Z,95.50
2018-05-10T23:04:35.927Z,95.30
2018-05-10T23:07:04.963Z,95.10
2018-05-10T23:09:33.978Z,95.30
2018-05-10T23:12:02.853Z,95.10
2018-05-10T23:14:31.735Z,94.90
2018-05-10T23:17:00.718Z,94.90
2018-05-10T23:19:29.595Z,94.90
2018-05-10T23:21:58.484Z,94.70
2018-05-10T23:24:27.364Z,94.70
2018-05-10T23:26:56.768Z,94.10
2018-05-10T23:29:25.707Z,93.70
2018-05-10T23:31:54.665Z,93.40
2018-05-10T23:34:23.625Z,93.80
2018-05-10T23:36:52.505Z,93.90
2018-05-10T23:39:21.709Z,93.80
2018-05-10T23:41:52.311Z,94.50
2018-05-10T23:44:21.274Z,94.50
2018-05-10T23:46:50.760Z,94.40
2018-05-10T23:49:19.781Z,94.80
2018-05-10T23:51:48.840Z,94.40
2018-05-10T23:54:17.724Z,94.30
2018-05-10T23:56:46.632Z,94.20
2018-05-10T23:59:15.923Z,94.40
